createdAt,value
2017-07-18T00:01:57.529Z,73.30
2017-07-18T00:04:25.813Z,73.80
2017-07-18T00:06:53.299Z,73.70
2017-07-18T00:09:20.804Z,74.30
2017-07-18T00:11:48.327Z,73.90
2017-07-18T00:14:16.601Z,74.30
2017-07-18T00:16:44.107Z,74.20
2017-07-18T00:19:11.624Z,73.50
2017-07-18T00:21:39.113Z,73.20
2017-07-18T00:24:07.397Z,73.50
2017-07-18T00:26:35.027Z,73.40
2017-07-18T00:29:02.547Z,73.90
2017-07-18T00:31:30.023Z,73.70
2017-07-18T00:33:57.528Z,73.20
2017-07-18T00:36:25.012Z,73.50
2017-07-18T00:38:52.532Z,73.70
2017-07-18T00:41:20.031Z,74.60
2017-07-18T00:43:47.545Z,74.50
2017-07-18T00:46:15.032Z,74.30
2017-07-18T00:48:42.537Z,74.20
2017-07-18T00:51:10.015Z,74.70
2017-07-18T00:53:37.504Z,74.60
2017-07-18T00:56:05.013Z,74.60
2017-07-18T00:58:32.504Z,74.10
2017-07-18T01:01:00.007Z,74.60
2017-07-18T01:03:27.492Z,74.20
2017-07-18T01:05:55.005Z,74.20
2017-07-18T01:08:22.505Z,74.00
2017-07-18T01:10:50.009Z,74.50
2017-07-18T01:13:17.499Z,74.30
2017-07-18T01:15:45.011Z,74.50
2017-07-18T01:18:12.509Z,74.70
2017-07-18T01:20:40.818Z,74.80
2017-07-18T01:23:08.308Z,75.30
2017-07-18T01:25:35.820Z,74.90
2017-07-18T01:28:03.326Z,74.60
2017-07-18T01:30:30.841Z,74.10
2017-07-18T01:32:58.343Z,74.20
2017-07-18T01:35:25.855Z,74.20
2017-07-18T01:37:53.344Z,74.50
2017-07-18T01:40:20.853Z,74.30
2017-07-18T01:42:48.346Z,74.60
2017-07-18T01:45:15.850Z,74.80
2017-07-18T01:47:43.340Z,75.10
2017-07-18T01:50:10.866Z,74.80
2017-07-18T01:52:38.357Z,75.20
2017-07-18T01:55:05.847Z,74.40
2017-07-18T01:57:33.352Z,74.30
2017-07-18T02:00:00.851Z,74.40
2017-07-18T02:02:29.174Z,74.00
2017-07-18T02:04:56.677Z,74.00
2017-07-18T02:07:24.258Z,74.50
2017-07-18T02:09:51.742Z,74.50
2017-07-18T02:12:20.030Z,74.60
2017-07-18T02:14:47.540Z,75.30
2017-07-18T02:17:15.046Z,74.50
2017-07-18T02:19:42.536Z,74.70
2017-07-18T02:22:10.810Z,75.00
2017-07-18T02:24:38.329Z,74.80
2017-07-18T02:27:05.857Z,74.20
2017-07-18T02:29:33.346Z,75.00
2017-07-18T02:32:00.864Z,75.10
2017-07-18T02:34:28.369Z,75.40
2017-07-18T02:36:55.868Z,75.20
2017-07-18T02:39:23.355Z,75.20
2017-07-18T02:41:50.859Z,75.10
2017-07-18T02:44:18.392Z,75.20
2017-07-18T02:46:45.909Z,75.90
2017-07-18T02:49:13.402Z,75.20
2017-07-18T02:51:40.912Z,74.90
2017-07-18T02:54:09.159Z,75.10
2017-07-18T02:56:36.668Z,75.60
2017-07-18T02:59:04.185Z,75.60
2017-07-18T03:01:31.695Z,75.40
2017-07-18T03:03:59.963Z,75.60
2017-07-18T03:06:27.466Z,75.90
2017-07-18T03:08:54.972Z,75.20
2017-07-18T03:11:22.477Z,75.00
2017-07-18T03:13:49.996Z,74.60
2017-07-18T03:16:17.484Z,74.90
2017-07-18T03:18:45.011Z,75.40
2017-07-18T03:21:12.521Z,75.80
2017-07-18T03:23:40.020Z,75.40
2017-07-18T03:26:07.529Z,75.10
2017-07-18T03:28:35.028Z,75.20
2017-07-18T03:31:02.525Z,75.00
2017-07-18T03:33:30.029Z,74.60
2017-07-18T03:35:57.525Z,74.80
2017-07-18T03:38:25.041Z,75.00
2017-07-18T03:40:52.530Z,74.60
2017-07-18T03:43:20.032Z,74.60
2017-07-18T03:45:48.280Z,74.20
2017-07-18T03:48:15.789Z,74.60
2017-07-18T03:50:43.293Z,75.10
2017-07-18T03:53:10.791Z,74.80
2017-07-18T03:55:38.312Z,74.70
2017-07-18T03:58:05.795Z,75.00
2017-07-18T04:00:33.306Z,74.40
2017-07-18T04:03:00.800Z,75.10
2017-07-18T04:05:29.080Z,74.90
2017-07-18T04:07:56.621Z,74.70
2017-07-18T04:10:24.129Z,74.80
2017-07-18T04:12:51.615Z,74.80
2017-07-18T04:15:19.125Z,74.80
2017-07-18T04:17:46.620Z,74.20
2017-07-18T04:20:14.141Z,74.30
2017-07-18T04:22:41.633Z,74.20
2017-07-18T04:25:09.160Z,74.20
2017-07-18T04:27:36.656Z,74.40
2017-07-18T04:30:04.158Z,74.10
2017-07-18T04:32:31.654Z,74.00
2017-07-18T04:34:59.174Z,73.90
2017-07-18T04:37:26.680Z,74.30
2017-07-18T04:39:54.274Z,74.20
2017-07-18T04:42:21.801Z,75.00
2017-07-18T04:44:49.338Z,74.70
2017-07-18T04:47:16.909Z,74.30
2017-07-18T04:49:44.432Z,74.30
2017-07-18T04:52:11.928Z,74.40
2017-07-18T04:54:39.426Z,73.90
2017-07-18T04:57:06.943Z,73.80
2017-07-18T04:59:34.446Z,73.70
2017-07-18T05:02:02.022Z,73.50
2017-07-18T05:04:29.540Z,73.50
2017-07-18T05:06:57.053Z,74.10
2017-07-18T05:09:24.537Z,75.00
2017-07-18T05:11:52.065Z,74.60
2017-07-18T05:14:19.553Z,74.60
2017-07-18T05:16:47.828Z,74.80
2017-07-18T05:19:15.316Z,74.70
2017-07-18T05:21:42.847Z,74.70
2017-07-18T05:24:10.326Z,74.80
2017-07-18T05:26:37.849Z,75.80
2017-07-18T05:29:05.349Z,75.60
2017-07-18T05:31:32.869Z,75.70
2017-07-18T05:34:00.355Z,75.60
2017-07-18T05:36:27.857Z,75.30
2017-07-18T05:38:55.344Z,74.50
2017-07-18T05:41:22.847Z,74.10
2017-07-18T05:43:51.131Z,74.00
2017-07-18T05:46:18.655Z,74.10
2017-07-18T05:48:46.167Z,74.60
2017-07-18T05:51:13.694Z,74.40
2017-07-18T05:53:41.179Z,74.40
2017-07-18T05:56:08.676Z,74.40
2017-07-18T05:58:36.181Z,74.50
2017-07-18T06:01:03.690Z,74.60
2017-07-18T06:03:31.189Z,74.50
2017-07-18T06:05:58.672Z,74.30
2017-07-18T06:08:26.181Z,74.10
2017-07-18T06:10:53.672Z,74.50
2017-07-18T06:13:22.990Z,74.60
2017-07-18T06:15:50.496Z,75.60
2017-07-18T06:18:18.760Z,75.80
2017-07-18T06:20:50.263Z,75.60
2017-07-18T06:23:17.803Z,75.50
2017-07-18T06:25:45.301Z,75.50
2017-07-18T06:28:12.809Z,76.00
2017-07-18T06:30:40.300Z,75.50
2017-07-18T06:33:07.802Z,74.90
2017-07-18T06:35:36.060Z,74.20
2017-07-18T06:38:04.330Z,73.90
2017-07-18T06:40:32.585Z,73.90
2017-07-18T06:43:00.102Z,73.70
2017-07-18T06:45:27.612Z,73.60
2017-07-18T06:47:55.126Z,73.70
2017-07-18T06:50:22.712Z,73.90
2017-07-18T06:52:50.273Z,73.60
2017-07-18T06:55:17.763Z,73.60
2017-07-18T06:57:45.248Z,73.00
2017-07-18T07:00:17.551Z,73.00
2017-07-18T07:02:45.049Z,72.80
2017-07-18T07:05:12.562Z,73.40
2017-07-18T07:07:40.061Z,73.90
2017-07-18T07:10:07.578Z,74.00
2017-07-18T07:12:38.653Z,73.20
2017-07-18T07:15:06.192Z,72.90
2017-07-18T07:17:34.441Z,72.50
2017-07-18T07:20:02.726Z,72.80
2017-07-18T07:22:30.214Z,72.00
2017-07-18T07:24:58.381Z,71.90
2017-07-18T07:27:25.872Z,72.30
2017-07-18T07:29:53.367Z,71.40
2017-07-18T07:32:20.865Z,71.30
2017-07-18T07:34:48.379Z,71.10
2017-07-18T07:37:16.630Z,70.50
2017-07-18T07:39:44.900Z,70.00
2017-07-18T07:42:13.144Z,70.40
2017-07-18T07:44:40.701Z,70.20
2017-07-18T07:47:08.944Z,69.10
2017-07-18T07:49:36.443Z,69.00
2017-07-18T07:52:03.929Z,68.70
2017-07-18T07:54:31.421Z,68.20
2017-07-18T07:56:58.904Z,67.90
2017-07-18T07:59:26.428Z,67.50
2017-07-18T08:01:53.913Z,67.10
2017-07-18T08:04:22.159Z,65.80
2017-07-18T08:06:49.660Z,65.80
2017-07-18T08:09:17.144Z,65.00
2017-07-18T08:11:45.468Z,65.70
2017-07-18T08:14:12.968Z,64.80
2017-07-18T08:16:40.471Z,63.90
2017-07-18T08:19:07.959Z,63.60
2017-07-18T08:21:35.477Z,62.80
2017-07-18T08:24:02.984Z,62.10
2017-07-18T08:26:30.489Z,62.10
2017-07-18T08:28:57.974Z,61.10
2017-07-18T08:31:25.475Z,61.20
2017-07-18T08:33:52.971Z,60.40
2017-07-18T08:36:20.474Z,59.70
2017-07-18T08:38:47.956Z,59.20
2017-07-18T08:41:15.473Z,59.00
2017-07-18T08:43:43.044Z,58.20
2017-07-18T08:46:10.726Z,57.70
2017-07-18T08:48:38.217Z,55.50
2017-07-18T08:51:05.716Z,54.90
2017-07-18T08:53:33.211Z,54.80
2017-07-18T08:56:01.693Z,54.30
2017-07-18T08:58:29.220Z,53.60
2017-07-18T09:00:56.735Z,52.10
2017-07-18T09:03:24.229Z,51.40
2017-07-18T09:05:52.489Z,51.80
2017-07-18T09:08:20.761Z,51.00
2017-07-18T09:10:49.012Z,50.50
2017-07-18T09:13:17.280Z,49.10
2017-07-18T09:15:45.548Z,49.00
2017-07-18T09:18:13.056Z,48.90
2017-07-18T09:20:40.540Z,48.10
2017-07-18T09:23:08.048Z,48.00
2017-07-18T09:25:35.543Z,47.40
2017-07-18T09:28:03.048Z,46.50
2017-07-18T09:30:31.296Z,46.10
2017-07-18T09:32:58.799Z,46.10
2017-07-18T09:35:26.277Z,45.00
2017-07-18T09:37:53.783Z,44.70
2017-07-18T09:40:21.263Z,44.10
2017-07-18T09:42:48.770Z,43.00
2017-07-18T09:45:16.256Z,42.60
2017-07-18T09:47:43.825Z,42.60
2017-07-18T09:50:11.320Z,42.30
2017-07-18T09:52:38.832Z,41.80
2017-07-18T09:55:07.080Z,41.80
2017-07-18T09:57:34.596Z,41.80
2017-07-18T10:00:02.848Z,38.30
2017-07-18T10:02:30.355Z,38.20
2017-07-18T10:04:57.838Z,42.70
2017-07-18T10:07:26.085Z,40.80
2017-07-18T10:09:53.596Z,40.00
2017-07-18T10:12:21.079Z,38.30
2017-07-18T10:14:49.351Z,37.00
2017-07-18T10:17:17.607Z,36.90
2017-07-18T10:19:45.881Z,36.10
2017-07-18T10:22:13.369Z,35.90
2017-07-18T10:24:40.880Z,36.40
2017-07-18T10:27:08.367Z,35.20
2017-07-18T10:29:35.864Z,36.20
2017-07-18T10:32:03.363Z,37.10
2017-07-18T10:34:30.869Z,39.40
2017-07-18T10:36:58.381Z,39.40
2017-07-18T10:39:25.880Z,38.50
2017-07-18T10:41:53.363Z,38.70
2017-07-18T10:44:20.865Z,36.40
2017-07-18T10:46:48.347Z,36.10
2017-07-18T10:49:15.850Z,33.90
2017-07-18T10:51:43.336Z,35.40
2017-07-18T10:54:10.839Z,37.20
2017-07-18T10:56:38.319Z,35.20
2017-07-18T10:59:05.827Z,35.50
2017-07-18T11:01:33.320Z,33.30
2017-07-18T11:04:00.833Z,34.70
2017-07-18T11:06:28.317Z,35.30
2017-07-18T11:08:55.805Z,34.40
2017-07-18T11:11:23.314Z,34.70
2017-07-18T11:13:50.817Z,35.50
2017-07-18T11:16:18.341Z,35.80
2017-07-18T11:18:45.828Z,32.80
2017-07-18T11:21:13.332Z,35.90
2017-07-18T11:23:41.583Z,37.00
2017-07-18T11:26:09.848Z,37.60
2017-07-18T11:28:38.104Z,37.70
2017-07-18T11:31:06.367Z,40.40
2017-07-18T11:33:33.852Z,40.40
2017-07-18T11:36:01.359Z,42.20
2017-07-18T11:38:29.613Z,42.90
2017-07-18T11:40:57.123Z,42.80
2017-07-18T11:43:24.618Z,44.20
2017-07-18T11:45:52.131Z,43.80
2017-07-18T11:48:19.609Z,44.10
2017-07-18T11:50:47.112Z,45.50
2017-07-18T11:53:14.591Z,47.20
2017-07-18T11:55:42.100Z,47.10
2017-07-18T11:58:09.581Z,48.10
2017-07-18T12:00:37.084Z,48.00
2017-07-18T12:03:04.575Z,47.40
2017-07-18T12:05:32.060Z,47.00
2017-07-18T12:07:59.564Z,47.70
2017-07-18T12:10:27.052Z,47.50
2017-07-18T12:12:54.550Z,47.70
2017-07-18T12:15:22.046Z,48.90
2017-07-18T12:17:50.322Z,47.90
2017-07-18T12:20:17.816Z,47.80
2017-07-18T12:22:45.328Z,47.40
2017-07-18T12:25:12.817Z,48.80
2017-07-18T12:27:40.335Z,48.70
2017-07-18T12:30:07.840Z,47.80
2017-07-18T12:32:35.339Z,46.90
2017-07-18T12:35:02.827Z,47.70
2017-07-18T12:37:30.332Z,47.90
2017-07-18T12:39:57.836Z,48.40
2017-07-18T12:42:25.354Z,48.10
2017-07-18T12:44:52.855Z,47.80
2017-07-18T12:47:20.363Z,48.20
2017-07-18T12:49:47.840Z,48.40
2017-07-18T12:52:15.340Z,49.00
2017-07-18T12:54:42.816Z,48.40
2017-07-18T12:57:10.331Z,48.20
2017-07-18T12:59:37.829Z,47.60
2017-07-18T13:02:06.080Z,46.60
2017-07-18T13:04:33.588Z,46.50
2017-07-18T13:07:01.078Z,46.50
2017-07-18T13:09:29.349Z,45.50
2017-07-18T13:11:56.832Z,45.40
2017-07-18T13:14:24.343Z,46.80
2017-07-18T13:16:51.825Z,46.00
2017-07-18T13:19:19.332Z,46.50
2017-07-18T13:21:46.820Z,46.40
2017-07-18T13:24:14.329Z,46.00
2017-07-18T13:26:41.834Z,46.90
2017-07-18T13:29:10.109Z,46.60
2017-07-18T13:31:37.585Z,46.50
2017-07-18T13:34:05.075Z,46.90
2017-07-18T13:36:33.352Z,47.50
2017-07-18T13:39:00.864Z,47.40
2017-07-18T13:41:28.356Z,46.50
2017-07-18T13:43:55.860Z,46.60
2017-07-18T13:46:24.104Z,45.10
2017-07-18T13:48:51.609Z,45.10
2017-07-18T13:51:19.096Z,45.50
2017-07-18T13:53:47.375Z,46.40
2017-07-18T13:56:15.624Z,46.10
2017-07-18T13:58:43.888Z,45.80
2017-07-18T14:01:12.145Z,45.40
2017-07-18T14:03:39.651Z,45.60
2017-07-18T14:06:07.147Z,45.80
2017-07-18T14:08:35.388Z,44.80
2017-07-18T14:11:02.893Z,44.80
2017-07-18T14:13:30.397Z,44.80
2017-07-18T14:15:57.917Z,45.00
2017-07-18T14:18:26.163Z,45.70
2017-07-18T14:20:53.728Z,45.40
2017-07-18T14:23:21.232Z,45.80
2017-07-18T14:25:48.732Z,46.70
2017-07-18T14:28:16.217Z,47.40
2017-07-18T14:30:43.712Z,45.60
2017-07-18T14:33:11.200Z,45.10
2017-07-18T14:35:38.711Z,46.00
2017-07-18T14:38:06.197Z,45.50
2017-07-18T14:40:33.724Z,45.80
2017-07-18T14:43:01.224Z,45.00
2017-07-18T14:45:28.744Z,44.70
2017-07-18T14:47:56.249Z,45.20
2017-07-18T14:50:23.745Z,45.60
2017-07-18T14:52:51.229Z,45.00
2017-07-18T14:55:18.736Z,45.70
2017-07-18T14:57:46.235Z,45.20
2017-07-18T15:00:13.844Z,45.30
2017-07-18T15:02:41.337Z,45.20
2017-07-18T15:05:08.828Z,44.40
2017-07-18T15:07:36.347Z,44.90
2017-07-18T15:10:03.840Z,44.00
2017-07-18T15:12:31.348Z,43.80
2017-07-18T15:14:58.840Z,45.20
2017-07-18T15:17:26.347Z,44.40
2017-07-18T15:19:53.900Z,44.50
2017-07-18T15:22:21.399Z,44.10
2017-07-18T15:24:49.661Z,45.40
2017-07-18T15:27:17.180Z,45.30
2017-07-18T15:29:46.829Z,45.70
2017-07-18T15:32:14.336Z,45.30
2017-07-18T15:34:42.580Z,45.70
2017-07-18T15:37:10.081Z,45.60
2017-07-18T15:39:37.568Z,45.80
2017-07-18T15:42:05.853Z,46.00
2017-07-18T15:44:33.434Z,45.90
2017-07-18T15:47:00.945Z,46.00
2017-07-18T15:49:28.432Z,45.70
2017-07-18T15:51:55.939Z,45.60
2017-07-18T15:54:23.428Z,45.40
2017-07-18T15:56:51.719Z,45.60
2017-07-18T15:59:19.231Z,45.50
2017-07-18T16:01:46.733Z,45.50
2017-07-18T16:04:14.214Z,46.40
2017-07-18T16:06:41.696Z,45.50
2017-07-18T16:09:09.192Z,45.30
2017-07-18T16:11:36.694Z,45.90
2017-07-18T16:14:04.195Z,45.50
2017-07-18T16:16:32.452Z,45.60
2017-07-18T16:18:59.961Z,45.10
2017-07-18T16:21:27.457Z,45.00
2017-07-18T16:23:55.716Z,45.40
2017-07-18T16:26:23.204Z,45.40
2017-07-18T16:28:50.718Z,44.70
2017-07-18T16:31:18.203Z,45.10
2017-07-18T16:33:45.734Z,45.30
2017-07-18T16:36:13.223Z,45.60
2017-07-18T16:38:41.483Z,44.50
2017-07-18T16:41:08.968Z,44.40
2017-07-18T16:43:36.481Z,45.00
2017-07-18T16:46:03.967Z,45.60
2017-07-18T16:48:31.471Z,45.60
2017-07-18T16:50:59.725Z,44.80
2017-07-18T16:53:27.236Z,44.70
2017-07-18T16:55:54.711Z,45.60
2017-07-18T16:58:22.211Z,44.80
2017-07-18T17:00:49.697Z,45.60
2017-07-18T17:03:17.196Z,46.80
2017-07-18T17:05:44.689Z,45.80
2017-07-18T17:08:12.194Z,45.80
2017-07-18T17:10:39.701Z,45.20
2017-07-18T17:13:07.193Z,45.60
2017-07-18T17:15:35.454Z,45.70
2017-07-18T17:18:03.696Z,45.70
2017-07-18T17:20:31.195Z,45.60
2017-07-18T17:22:58.682Z,45.30
2017-07-18T17:25:26.196Z,45.50
2017-07-18T17:27:53.694Z,45.60
2017-07-18T17:30:21.195Z,45.60
2017-07-18T17:32:48.672Z,45.50
2017-07-18T17:35:16.960Z,45.50
2017-07-18T17:37:44.453Z,45.50
2017-07-18T17:40:11.951Z,45.60
2017-07-18T17:42:39.432Z,45.60
2017-07-18T17:45:06.949Z,46.10
2017-07-18T17:47:34.438Z,45.80
2017-07-18T17:50:01.956Z,46.00
2017-07-18T17:52:29.499Z,46.20
2017-07-18T17:54:56.991Z,46.40
2017-07-18T17:57:24.481Z,46.20
2017-07-18T17:59:51.989Z,46.20
2017-07-18T18:02:19.524Z,46.00
2017-07-18T18:04:47.065Z,46.60
2017-07-18T18:07:14.576Z,45.60
2017-07-18T18:09:42.103Z,45.50
2017-07-18T18:12:09.612Z,46.50
2017-07-18T18:14:37.104Z,46.70
2017-07-18T18:17:05.364Z,47.60
2017-07-18T18:19:32.841Z,46.80
2017-07-18T18:22:00.335Z,47.20
2017-07-18T18:24:27.820Z,47.80
2017-07-18T18:26:56.186Z,48.10
2017-07-18T18:29:23.670Z,48.30
2017-07-18T18:31:51.168Z,49.00
2017-07-18T18:34:18.663Z,49.30
2017-07-18T18:36:46.177Z,49.50
2017-07-18T18:39:13.663Z,49.70
2017-07-18T18:41:41.168Z,49.30
2017-07-18T18:44:08.648Z,49.40
2017-07-18T18:46:36.924Z,50.00
2017-07-18T18:49:05.188Z,49.90
2017-07-18T18:51:33.467Z,50.20
2017-07-18T18:54:01.877Z,50.10
2017-07-18T18:56:29.379Z,50.50
2017-07-18T18:58:56.904Z,50.80
2017-07-18T19:01:24.422Z,50.60
2017-07-18T19:03:51.910Z,51.10
2017-07-18T19:06:19.423Z,51.10
2017-07-18T19:08:47.716Z,52.10
2017-07-18T19:11:15.204Z,52.10
2017-07-18T19:13:42.723Z,52.50
2017-07-18T19:16:10.212Z,53.50
2017-07-18T19:18:38.483Z,53.00
2017-07-18T19:21:05.979Z,53.00
2017-07-18T19:23:33.579Z,53.20
2017-07-18T19:26:01.097Z,53.70
2017-07-18T19:28:29.409Z,54.70
2017-07-18T19:30:56.900Z,54.60
2017-07-18T19:33:24.414Z,55.20
2017-07-18T19:35:51.904Z,55.80
2017-07-18T19:38:19.415Z,56.80
2017-07-18T19:40:46.895Z,56.30
2017-07-18T19:43:14.407Z,56.30
2017-07-18T19:45:42.674Z,56.10
2017-07-18T19:48:10.948Z,56.70
2017-07-18T19:50:38.469Z,56.00
2017-07-18T19:53:06.072Z,55.90
2017-07-18T19:55:33.548Z,56.60
2017-07-18T19:58:01.061Z,56.70
2017-07-18T20:00:28.546Z,56.80
2017-07-18T20:02:56.816Z,56.50
2017-07-18T20:05:24.314Z,56.50
2017-07-18T20:07:51.840Z,56.50
2017-07-18T20:10:19.332Z,56.70
2017-07-18T20:12:47.612Z,57.20
2017-07-18T20:15:15.124Z,57.10
2017-07-18T20:17:42.608Z,57.60
2017-07-18T20:20:10.972Z,58.00
2017-07-18T20:22:40.318Z,58.40
2017-07-18T20:25:07.828Z,58.90
2017-07-18T20:27:35.320Z,58.70
2017-07-18T20:30:03.596Z,58.50
2017-07-18T20:32:31.083Z,58.40
2017-07-18T20:34:58.607Z,58.40
2017-07-18T20:37:26.095Z,58.30
2017-07-18T20:39:53.595Z,58.60
2017-07-18T20:42:21.077Z,58.80
2017-07-18T20:44:48.592Z,59.00
2017-07-18T20:47:16.087Z,58.80
2017-07-18T20:49:43.591Z,58.90
2017-07-18T20:52:11.075Z,59.10
2017-07-18T20:54:38.584Z,59.00
2017-07-18T20:57:06.197Z,58.90
2017-07-18T20:59:33.697Z,58.90
2017-07-18T21:02:01.941Z,59.40
2017-07-18T21:04:30.203Z,59.80
2017-07-18T21:06:58.456Z,59.10
2017-07-18T21:09:25.973Z,59.10
2017-07-18T21:11:53.448Z,59.50
2017-07-18T21:14:21.724Z,59.90
2017-07-18T21:16:49.240Z,59.80
2017-07-18T21:19:16.718Z,60.50
2017-07-18T21:21:44.225Z,60.90
2017-07-18T21:24:11.715Z,61.40
2017-07-18T21:26:39.215Z,62.00
2017-07-18T21:29:06.696Z,62.00
2017-07-18T21:31:34.202Z,62.00
2017-07-18T21:34:01.684Z,62.00
2017-07-18T21:36:29.188Z,61.80
2017-07-18T21:38:57.435Z,61.40
2017-07-18T21:41:25.715Z,62.00
2017-07-18T21:43:53.977Z,62.20
2017-07-18T21:46:22.243Z,62.50
2017-07-18T21:48:50.519Z,62.90
2017-07-18T21:51:18.015Z,63.40
2017-07-18T21:53:45.500Z,63.10
2017-07-18T21:56:13.016Z,63.60
2017-07-18T21:58:40.500Z,64.00
2017-07-18T22:01:08.000Z,64.10
2017-07-18T22:03:35.475Z,64.00
2017-07-18T22:06:02.986Z,64.30
2017-07-18T22:08:30.480Z,64.50
2017-07-18T22:10:57.967Z,64.40
2017-07-18T22:13:26.236Z,64.40
2017-07-18T22:15:54.488Z,65.60
2017-07-18T22:18:21.993Z,64.80
2017-07-18T22:20:49.476Z,64.80
2017-07-18T22:23:16.989Z,64.70
2017-07-18T22:25:44.475Z,64.90
2017-07-18T22:28:11.968Z,64.50
2017-07-18T22:30:39.444Z,64.50
2017-07-18T22:33:06.944Z,64.60
2017-07-18T22:35:34.433Z,64.00
2017-07-18T22:38:02.699Z,64.60
2017-07-18T22:40:30.195Z,63.90
2017-07-18T22:42:57.704Z,64.60
2017-07-18T22:45:25.188Z,64.10
2017-07-18T22:47:52.693Z,63.60
2017-07-18T22:50:20.179Z,63.10
2017-07-18T22:52:47.685Z,63.00
2017-07-18T22:55:15.169Z,63.10
2017-07-18T22:57:42.662Z,62.90
2017-07-18T23:00:10.143Z,62.50
2017-07-18T23:02:37.657Z,62.30
2017-07-18T23:05:05.136Z,62.40
2017-07-18T23:07:32.611Z,62.60
2017-07-18T23:10:00.914Z,62.50
2017-07-18T23:12:28.407Z,62.50
2017-07-18T23:14:56.675Z,63.20
2017-07-18T23:17:24.924Z,63.50
2017-07-18T23:19:52.428Z,63.40
2017-07-18T23:22:19.924Z,64.00
2017-07-18T23:24:47.449Z,64.20
2017-07-18T23:27:14.943Z,63.70
2017-07-18T23:29:42.444Z,63.40
2017-07-18T23:32:10.703Z,63.30
2017-07-18T23:34:38.980Z,63.30
2017-07-18T23:37:06.460Z,63.30
2017-07-18T23:39:33.959Z,62.80
2017-07-18T23:42:01.445Z,62.30
2017-07-18T23:44:28.964Z,62.50
2017-07-18T23:46:56.447Z,62.30
2017-07-18T23:49:23.960Z,62.40
2017-07-18T23:51:51.456Z,62.50
2017-07-18T23:54:19.748Z,63.80
2017-07-18T23:56:47.262Z,63.70
2017-07-18T23:59:15.531Z,63.60
